sensor_id;sensor_type;location;lat;lon;timestamp;P1;durP1;ratioP1;P2;durP2;ratioP2
11548;SDS011;61444;59.472;18.306;2024-03-06T00:01:33;5.07;;;3.07;;
11548;SDS011;61444;59.472;18.306;2024-03-06T00:03:43;6.70;;;2.40;;
11548;SDS011;61444;59.472;18.306;2024-03-06T00:05:51;5.43;;;2.70;;
11548;SDS011;61444;59.472;18.306;2024-03-06T00:08:00;8.13;;;2.80;;
11548;SDS011;61444;59.472;18.306;2024-03-06T00:10:15;6.93;;;2.97;;
11548;SDS011;61444;59.472;18.306;2024-03-06T00:12:24;6.90;;;3.07;;
11548;SDS011;61444;59.472;18.306;2024-03-06T00:14:33;4.53;;;2.40;;
11548;SDS011;61444;59.472;18.306;2024-03-06T00:16:43;5.63;;;2.77;;
11548;SDS011;61444;59.472;18.306;2024-03-06T00:18:51;4.63;;;2.40;;
11548;SDS011;61444;59.472;18.306;2024-03-06T00:21:01;7.97;;;2.87;;
11548;SDS011;61444;59.472;18.306;2024-03-06T00:23:10;6.53;;;2.33;;
11548;SDS011;61444;59.472;18.306;2024-03-06T00:25:20;6.60;;;2.47;;
11548;SDS011;61444;59.472;18.306;2024-03-06T00:27:29;3.90;;;1.87;;
11548;SDS011;61444;59.472;18.306;2024-03-06T00:29:37;6.23;;;2.47;;
11548;SDS011;61444;59.472;18.306;2024-03-06T00:31:49;4.17;;;2.57;;
11548;SDS011;61444;59.472;18.306;2024-03-06T00:33:58;7.67;;;3.00;;
11548;SDS011;61444;59.472;18.306;2024-03-06T00:36:07;5.77;;;2.30;;
11548;SDS011;61444;59.472;18.306;2024-03-06T00:38:15;5.23;;;2.30;;
11548;SDS011;61444;59.472;18.306;2024-03-06T00:40:25;4.17;;;2.40;;
11548;SDS011;61444;59.472;18.306;2024-03-06T00:42:34;4.93;;;2.43;;
11548;SDS011;61444;59.472;18.306;2024-03-06T00:44:42;3.63;;;2.30;;
11548;SDS011;61444;59.472;18.306;2024-03-06T00:46:51;6.43;;;2.33;;
11548;SDS011;61444;59.472;18.306;2024-03-06T00:49:00;4.97;;;2.60;;
11548;SDS011;61444;59.472;18.306;2024-03-06T00:51:08;5.53;;;2.33;;
11548;SDS011;61444;59.472;18.306;2024-03-06T00:53:17;5.50;;;2.27;;
11548;SDS011;61444;59.472;18.306;2024-03-06T00:55:27;5.87;;;2.37;;
11548;SDS011;61444;59.472;18.306;2024-03-06T00:57:36;6.33;;;2.43;;
11548;SDS011;61444;59.472;18.306;2024-03-06T00:59:44;4.77;;;2.53;;
11548;SDS011;61444;59.472;18.306;2024-03-06T01:01:55;6.33;;;2.50;;
11548;SDS011;61444;59.472;18.306;2024-03-06T01:04:04;3.50;;;1.97;;
11548;SDS011;61444;59.472;18.306;2024-03-06T01:06:12;4.83;;;2.20;;
11548;SDS011;61444;59.472;18.306;2024-03-06T01:08:21;4.73;;;2.10;;
11548;SDS011;61444;59.472;18.306;2024-03-06T01:10:35;3.83;;;1.80;;
11548;SDS011;61444;59.472;18.306;2024-03-06T01:12:44;3.93;;;1.97;;
11548;SDS011;61444;59.472;18.306;2024-03-06T01:14:53;4.37;;;1.90;;
11548;SDS011;61444;59.472;18.306;2024-03-06T01:17:01;4.97;;;2.40;;
11548;SDS011;61444;59.472;18.306;2024-03-06T01:19:10;4.30;;;2.00;;
11548;SDS011;61444;59.472;18.306;2024-03-06T01:21:19;5.07;;;2.20;;
11548;SDS011;61444;59.472;18.306;2024-03-06T01:23:28;5.50;;;2.00;;
11548;SDS011;61444;59.472;18.306;2024-03-06T01:25:36;5.40;;;2.30;;
11548;SDS011;61444;59.472;18.306;2024-03-06T01:27:45;4.67;;;1.83;;
11548;SDS011;61444;59.472;18.306;2024-03-06T01:29:54;3.67;;;2.30;;
11548;SDS011;61444;59.472;18.306;2024-03-06T01:32:05;4.80;;;2.30;;
11548;SDS011;61444;59.472;18.306;2024-03-06T01:34:14;4.10;;;2.20;;
11548;SDS011;61444;59.472;18.306;2024-03-06T01:36:23;5.10;;;2.10;;
11548;SDS011;61444;59.472;18.306;2024-03-06T01:38:30;4.33;;;2.67;;
11548;SDS011;61444;59.472;18.306;2024-03-06T01:40:43;3.70;;;2.40;;
11548;SDS011;61444;59.472;18.306;2024-03-06T01:42:52;4.13;;;2.40;;
11548;SDS011;61444;59.472;18.306;2024-03-06T01:45:01;4.03;;;2.20;;
11548;SDS011;61444;59.472;18.306;2024-03-06T01:47:10;5.60;;;2.27;;
11548;SDS011;61444;59.472;18.306;2024-03-06T01:49:19;6.73;;;2.10;;
11548;SDS011;61444;59.472;18.306;2024-03-06T01:51:41;4.53;;;2.17;;
11548;SDS011;61444;59.472;18.306;2024-03-06T01:53:51;5.87;;;2.20;;
11548;SDS011;61444;59.472;18.306;2024-03-06T01:56:01;4.97;;;2.40;;
11548;SDS011;61444;59.472;18.306;2024-03-06T01:58:10;4.30;;;2.70;;
11548;SDS011;61444;59.472;18.306;2024-03-06T02:00:19;4.73;;;2.40;;
11548;SDS011;61444;59.472;18.306;2024-03-06T02:02:28;6.37;;;1.97;;
11548;SDS011;61444;59.472;18.306;2024-03-06T02:04:37;6.23;;;2.37;;
11548;SDS011;61444;59.472;18.306;2024-03-06T02:06:45;3.97;;;2.30;;
11548;SDS011;61444;59.472;18.306;2024-03-06T02:08:56;4.37;;;2.47;;
11548;SDS011;61444;59.472;18.306;2024-03-06T02:11:06;5.20;;;2.50;;
11548;SDS011;61444;59.472;18.306;2024-03-06T02:13:15;5.83;;;2.80;;
11548;SDS011;61444;59.472;18.306;2024-03-06T02:15:24;3.87;;;2.13;;
11548;SDS011;61444;59.472;18.306;2024-03-06T02:17:33;4.23;;;2.33;;
11548;SDS011;61444;59.472;18.306;2024-03-06T02:19:43;6.30;;;2.60;;
11548;SDS011;61444;59.472;18.306;2024-03-06T02:21:53;4.70;;;2.03;;
11548;SDS011;61444;59.472;18.306;2024-03-06T02:24:05;6.07;;;2.20;;
11548;SDS011;61444;59.472;18.306;2024-03-06T02:26:14;5.00;;;2.40;;
11548;SDS011;61444;59.472;18.306;2024-03-06T02:28:23;6.20;;;2.10;;
11548;SDS011;61444;59.472;18.306;2024-03-06T02:30:32;4.33;;;2.40;;
11548;SDS011;61444;59.472;18.306;2024-03-06T02:32:43;8.40;;;2.00;;
11548;SDS011;61444;59.472;18.306;2024-03-06T02:34:52;5.17;;;2.53;;
11548;SDS011;61444;59.472;18.306;2024-03-06T02:37:02;4.37;;;2.40;;
11548;SDS011;61444;59.472;18.306;2024-03-06T02:39:11;9.37;;;2.37;;
11548;SDS011;61444;59.472;18.306;2024-03-06T02:41:21;5.23;;;2.10;;
11548;SDS011;61444;59.472;18.306;2024-03-06T02:43:29;6.53;;;2.30;;
11548;SDS011;61444;59.472;18.306;2024-03-06T02:45:38;3.93;;;1.87;;
11548;SDS011;61444;59.472;18.306;2024-03-06T02:47:46;8.67;;;2.10;;
11548;SDS011;61444;59.472;18.306;2024-03-06T02:49:55;6.37;;;2.33;;
11548;SDS011;61444;59.472;18.306;2024-03-06T02:52:05;3.60;;;1.80;;
11548;SDS011;61444;59.472;18.306;2024-03-06T02:54:14;4.57;;;1.93;;
11548;SDS011;61444;59.472;18.306;2024-03-06T02:56:22;4.67;;;2.00;;
11548;SDS011;61444;59.472;18.306;2024-03-06T02:58:31;4.47;;;2.23;;
11548;SDS011;61444;59.472;18.306;2024-03-06T03:00:42;5.27;;;2.33;;
11548;SDS011;61444;59.472;18.306;2024-03-06T03:02:50;4.07;;;1.90;;
11548;SDS011;61444;59.472;18.306;2024-03-06T03:04:59;5.70;;;2.30;;
11548;SDS011;61444;59.472;18.306;2024-03-06T03:07:09;4.57;;;2.33;;
11548;SDS011;61444;59.472;18.306;2024-03-06T03:09:18;5.23;;;2.07;;
11548;SDS011;61444;59.472;18.306;2024-03-06T03:11:27;5.07;;;2.80;;
11548;SDS011;61444;59.472;18.306;2024-03-06T03:13:36;9.93;;;2.83;;
11548;SDS011;61444;59.472;18.306;2024-03-06T03:15:47;4.87;;;2.43;;
11548;SDS011;61444;59.472;18.306;2024-03-06T03:17:58;5.50;;;2.30;;
11548;SDS011;61444;59.472;18.306;2024-03-06T03:20:07;5.43;;;2.00;;
11548;SDS011;61444;59.472;18.306;2024-03-06T03:22:19;4.60;;;2.23;;
11548;SDS011;61444;59.472;18.306;2024-03-06T03:24:28;5.07;;;1.97;;
11548;SDS011;61444;59.472;18.306;2024-03-06T03:26:36;7.17;;;2.33;;
11548;SDS011;61444;59.472;18.306;2024-03-06T03:28:45;5.77;;;2.30;;
11548;SDS011;61444;59.472;18.306;2024-03-06T03:30:55;4.47;;;2.30;;
11548;SDS011;61444;59.472;18.306;2024-03-06T03:33:04;4.07;;;2.40;;
11548;SDS011;61444;59.472;18.306;2024-03-06T03:35:12;5.50;;;2.57;;
11548;SDS011;61444;59.472;18.306;2024-03-06T03:37:22;7.13;;;2.23;;
11548;SDS011;61444;59.472;18.306;2024-03-06T03:39:31;6.13;;;2.40;;
11548;SDS011;61444;59.472;18.306;2024-03-06T03:41:42;7.37;;;2.47;;
11548;SDS011;61444;59.472;18.306;2024-03-06T03:43:51;5.57;;;2.70;;
11548;SDS011;61444;59.472;18.306;2024-03-06T03:46:00;6.80;;;2.73;;
11548;SDS011;61444;59.472;18.306;2024-03-06T03:48:10;4.47;;;2.23;;
11548;SDS011;61444;59.472;18.306;2024-03-06T03:50:19;6.87;;;2.80;;
11548;SDS011;61444;59.472;18.306;2024-03-06T03:52:28;3.43;;;2.00;;
11548;SDS011;61444;59.472;18.306;2024-03-06T03:54:37;4.83;;;2.30;;
11548;SDS011;61444;59.472;18.306;2024-03-06T03:56:46;7.73;;;3.20;;
11548;SDS011;61444;59.472;18.306;2024-03-06T03:58:55;8.07;;;2.50;;
11548;SDS011;61444;59.472;18.306;2024-03-06T04:01:05;7.23;;;2.57;;
11548;SDS011;61444;59.472;18.306;2024-03-06T04:03:13;3.90;;;2.40;;
11548;SDS011;61444;59.472;18.306;2024-03-06T04:05:21;6.33;;;2.50;;
11548;SDS011;61444;59.472;18.306;2024-03-06T04:07:31;5.57;;;2.27;;
11548;SDS011;61444;59.472;18.306;2024-03-06T04:09:39;6.97;;;2.73;;
11548;SDS011;61444;59.472;18.306;2024-03-06T04:11:47;4.53;;;2.30;;
11548;SDS011;61444;59.472;18.306;2024-03-06T04:13:56;5.20;;;2.47;;
11548;SDS011;61444;59.472;18.306;2024-03-06T04:16:04;8.60;;;2.60;;
11548;SDS011;61444;59.472;18.306;2024-03-06T04:18:12;6.37;;;2.63;;
11548;SDS011;61444;59.472;18.306;2024-03-06T04:20:21;5.30;;;2.63;;
11548;SDS011;61444;59.472;18.306;2024-03-06T04:22:31;7.20;;;2.23;;
11548;SDS011;61444;59.472;18.306;2024-03-06T04:24:40;5.37;;;2.23;;
11548;SDS011;61444;59.472;18.306;2024-03-06T04:26:49;7.30;;;2.27;;
11548;SDS011;61444;59.472;18.306;2024-03-06T04:28:58;4.10;;;2.30;;
11548;SDS011;61444;59.472;18.306;2024-03-06T04:31:07;4.70;;;2.23;;
11548;SDS011;61444;59.472;18.306;2024-03-06T04:33:16;6.23;;;2.37;;
11548;SDS011;61444;59.472;18.306;2024-03-06T04:35:24;4.83;;;2.50;;
11548;SDS011;61444;59.472;18.306;2024-03-06T04:37:34;4.43;;;2.40;;
11548;SDS011;61444;59.472;18.306;2024-03-06T04:39:45;4.10;;;2.37;;
11548;SDS011;61444;59.472;18.306;2024-03-06T04:41:54;4.17;;;2.40;;
11548;SDS011;61444;59.472;18.306;2024-03-06T04:44:02;4.97;;;2.27;;
11548;SDS011;61444;59.472;18.306;2024-03-06T04:46:12;5.03;;;2.47;;
11548;SDS011;61444;59.472;18.306;2024-03-06T04:48:21;3.67;;;2.00;;
11548;SDS011;61444;59.472;18.306;2024-03-06T04:50:29;5.43;;;2.33;;
11548;SDS011;61444;59.472;18.306;2024-03-06T04:52:40;4.73;;;1.87;;
11548;SDS011;61444;59.472;18.306;2024-03-06T04:54:49;5.47;;;2.40;;
11548;SDS011;61444;59.472;18.306;2024-03-06T04:57:00;5.67;;;2.47;;
11548;SDS011;61444;59.472;18.306;2024-03-06T04:59:09;4.23;;;2.30;;
11548;SDS011;61444;59.472;18.306;2024-03-06T05:01:18;7.17;;;2.60;;
11548;SDS011;61444;59.472;18.306;2024-03-06T05:03:26;4.33;;;2.20;;
11548;SDS011;61444;59.472;18.306;2024-03-06T05:05:52;11.80;;;2.67;;
11548;SDS011;61444;59.472;18.306;2024-03-06T05:08:19;7.60;;;2.90;;
11548;SDS011;61444;59.472;18.306;2024-03-06T05:10:45;7.03;;;2.70;;
11548;SDS011;61444;59.472;18.306;2024-03-06T05:13:11;6.27;;;2.67;;
11548;SDS011;61444;59.472;18.306;2024-03-06T05:15:37;5.07;;;2.40;;
11548;SDS011;61444;59.472;18.306;2024-03-06T05:18:04;5.03;;;2.37;;
11548;SDS011;61444;59.472;18.306;2024-03-06T05:20:31;4.20;;;2.33;;
11548;SDS011;61444;59.472;18.306;2024-03-06T05:23:00;8.00;;;3.23;;
11548;SDS011;61444;59.472;18.306;2024-03-06T05:25:28;6.30;;;2.60;;
11548;SDS011;61444;59.472;18.306;2024-03-06T05:27:54;8.30;;;2.97;;
11548;SDS011;61444;59.472;18.306;2024-03-06T05:30:20;5.50;;;2.70;;
11548;SDS011;61444;59.472;18.306;2024-03-06T05:32:46;6.07;;;2.47;;
11548;SDS011;61444;59.472;18.306;2024-03-06T05:35:12;6.60;;;2.90;;
11548;SDS011;61444;59.472;18.306;2024-03-06T05:37:38;5.80;;;2.57;;
11548;SDS011;61444;59.472;18.306;2024-03-06T05:40:07;6.50;;;2.47;;
11548;SDS011;61444;59.472;18.306;2024-03-06T05:42:35;5.23;;;2.77;;
11548;SDS011;61444;59.472;18.306;2024-03-06T05:45:03;6.53;;;2.93;;
11548;SDS011;61444;59.472;18.306;2024-03-06T05:47:34;5.90;;;2.43;;
11548;SDS011;61444;59.472;18.306;2024-03-06T05:50:00;5.67;;;2.60;;
11548;SDS011;61444;59.472;18.306;2024-03-06T05:52:28;7.17;;;2.83;;
11548;SDS011;61444;59.472;18.306;2024-03-06T05:54:54;7.43;;;3.33;;
11548;SDS011;61444;59.472;18.306;2024-03-06T05:57:20;9.87;;;2.87;;
11548;SDS011;61444;59.472;18.306;2024-03-06T05:59:49;5.50;;;2.40;;
11548;SDS011;61444;59.472;18.306;2024-03-06T06:01:57;9.27;;;3.00;;
11548;SDS011;61444;59.472;18.306;2024-03-06T06:04:06;5.70;;;2.67;;
11548;SDS011;61444;59.472;18.306;2024-03-06T06:06:15;4.80;;;2.50;;
11548;SDS011;61444;59.472;18.306;2024-03-06T06:08:24;10.97;;;3.10;;
11548;SDS011;61444;59.472;18.306;2024-03-06T06:10:32;5.57;;;2.90;;
11548;SDS011;61444;59.472;18.306;2024-03-06T06:12:41;9.50;;;3.10;;
11548;SDS011;61444;59.472;18.306;2024-03-06T06:14:51;11.60;;;3.10;;
11548;SDS011;61444;59.472;18.306;2024-03-06T06:16:59;12.67;;;3.23;;
11548;SDS011;61444;59.472;18.306;2024-03-06T06:19:09;8.43;;;2.80;;
11548;SDS011;61444;59.472;18.306;2024-03-06T06:21:18;7.37;;;3.07;;
11548;SDS011;61444;59.472;18.306;2024-03-06T06:23:25;9.37;;;2.57;;
11548;SDS011;61444;59.472;18.306;2024-03-06T06:25:34;11.47;;;3.23;;
11548;SDS011;61444;59.472;18.306;2024-03-06T06:27:43;6.20;;;2.33;;
11548;SDS011;61444;59.472;18.306;2024-03-06T06:29:53;4.77;;;2.33;;
11548;SDS011;61444;59.472;18.306;2024-03-06T06:32:02;4.70;;;2.70;;
11548;SDS011;61444;59.472;18.306;2024-03-06T06:34:10;5.53;;;2.60;;
11548;SDS011;61444;59.472;18.306;2024-03-06T06:36:19;6.47;;;2.17;;
11548;SDS011;61444;59.472;18.306;2024-03-06T06:38:27;3.23;;;2.07;;
11548;SDS011;61444;59.472;18.306;2024-03-06T06:40:36;4.60;;;2.00;;
11548;SDS011;61444;59.472;18.306;2024-03-06T06:42:45;8.07;;;2.30;;
11548;SDS011;61444;59.472;18.306;2024-03-06T06:44:58;5.37;;;2.50;;
11548;SDS011;61444;59.472;18.306;2024-03-06T06:47:07;8.17;;;2.70;;
11548;SDS011;61444;59.472;18.306;2024-03-06T06:49:15;5.13;;;2.57;;
11548;SDS011;61444;59.472;18.306;2024-03-06T06:51:24;5.33;;;2.83;;
11548;SDS011;61444;59.472;18.306;2024-03-06T06:53:32;5.50;;;2.57;;
11548;SDS011;61444;59.472;18.306;2024-03-06T06:55:41;5.93;;;2.60;;
11548;SDS011;61444;59.472;18.306;2024-03-06T06:57:50;7.07;;;2.50;;
11548;SDS011;61444;59.472;18.306;2024-03-06T07:00:00;6.77;;;2.47;;
11548;SDS011;61444;59.472;18.306;2024-03-06T07:02:15;5.90;;;2.43;;
11548;SDS011;61444;59.472;18.306;2024-03-06T07:04:26;4.63;;;2.63;;
11548;SDS011;61444;59.472;18.306;2024-03-06T07:06:35;5.27;;;2.20;;
11548;SDS011;61444;59.472;18.306;2024-03-06T07:08:43;4.27;;;2.00;;
11548;SDS011;61444;59.472;18.306;2024-03-06T07:10:52;7.23;;;2.47;;
11548;SDS011;61444;59.472;18.306;2024-03-06T07:13:01;4.47;;;2.30;;
11548;SDS011;61444;59.472;18.306;2024-03-06T07:15:15;4.30;;;2.33;;
11548;SDS011;61444;59.472;18.306;2024-03-06T07:17:26;4.27;;;2.23;;
11548;SDS011;61444;59.472;18.306;2024-03-06T07:19:35;7.40;;;3.40;;
11548;SDS011;61444;59.472;18.306;2024-03-06T07:21:45;6.70;;;3.57;;
11548;SDS011;61444;59.472;18.306;2024-03-06T07:23:53;7.20;;;2.70;;
11548;SDS011;61444;59.472;18.306;2024-03-06T07:26:04;5.67;;;3.27;;
11548;SDS011;61444;59.472;18.306;2024-03-06T07:28:13;4.20;;;2.60;;
11548;SDS011;61444;59.472;18.306;2024-03-06T07:30:25;6.53;;;3.00;;
11548;SDS011;61444;59.472;18.306;2024-03-06T07:32:33;4.80;;;2.40;;
11548;SDS011;61444;59.472;18.306;2024-03-06T07:34:42;6.13;;;2.83;;
11548;SDS011;61444;59.472;18.306;2024-03-06T07:36:50;4.03;;;2.30;;
11548;SDS011;61444;59.472;18.306;2024-03-06T07:38:58;10.67;;;2.53;;
11548;SDS011;61444;59.472;18.306;2024-03-06T07:41:07;5.77;;;2.30;;
11548;SDS011;61444;59.472;18.306;2024-03-06T07:43:16;7.10;;;4.87;;
11548;SDS011;61444;59.472;18.306;2024-03-06T07:45:26;8.83;;;2.60;;
11548;SDS011;61444;59.472;18.306;2024-03-06T07:47:35;3.00;;;2.30;;
11548;SDS011;61444;59.472;18.306;2024-03-06T07:49:44;4.37;;;2.60;;
11548;SDS011;61444;59.472;18.306;2024-03-06T07:51:53;6.13;;;3.60;;
11548;SDS011;61444;59.472;18.306;2024-03-06T07:54:03;7.40;;;3.43;;
11548;SDS011;61444;59.472;18.306;2024-03-06T07:56:12;6.63;;;3.10;;
11548;SDS011;61444;59.472;18.306;2024-03-06T07:58:20;10.60;;;6.87;;
11548;SDS011;61444;59.472;18.306;2024-03-06T08:00:30;5.10;;;2.50;;
11548;SDS011;61444;59.472;18.306;2024-03-06T08:02:39;5.33;;;1.93;;
11548;SDS011;61444;59.472;18.306;2024-03-06T08:04:49;7.63;;;3.10;;
11548;SDS011;61444;59.472;18.306;2024-03-06T08:06:58;7.17;;;2.23;;
11548;SDS011;61444;59.472;18.306;2024-03-06T08:09:06;6.80;;;2.33;;
11548;SDS011;61444;59.472;18.306;2024-03-06T08:11:16;4.50;;;2.00;;
11548;SDS011;61444;59.472;18.306;2024-03-06T08:13:24;5.93;;;2.00;;
11548;SDS011;61444;59.472;18.306;2024-03-06T08:15:35;7.17;;;1.83;;
11548;SDS011;61444;59.472;18.306;2024-03-06T08:17:44;4.40;;;1.33;;
11548;SDS011;61444;59.472;18.306;2024-03-06T08:19:52;3.80;;;1.60;;
11548;SDS011;61444;59.472;18.306;2024-03-06T08:22:01;2.97;;;1.40;;
11548;SDS011;61444;59.472;18.306;2024-03-06T08:24:12;2.60;;;1.30;;
11548;SDS011;61444;59.472;18.306;2024-03-06T08:26:22;3.33;;;1.50;;
11548;SDS011;61444;59.472;18.306;2024-03-06T08:28:30;7.03;;;1.70;;
11548;SDS011;61444;59.472;18.306;2024-03-06T08:30:40;5.37;;;1.90;;
11548;SDS011;61444;59.472;18.306;2024-03-06T08:32:50;3.37;;;1.50;;
11548;SDS011;61444;59.472;18.306;2024-03-06T08:34:58;3.50;;;1.40;;
11548;SDS011;61444;59.472;18.306;2024-03-06T08:37:09;5.07;;;1.50;;
11548;SDS011;61444;59.472;18.306;2024-03-06T08:39:19;3.60;;;1.63;;
11548;SDS011;61444;59.472;18.306;2024-03-06T08:41:27;4.83;;;1.90;;
11548;SDS011;61444;59.472;18.306;2024-03-06T08:43:36;3.87;;;1.60;;
11548;SDS011;61444;59.472;18.306;2024-03-06T08:45:46;2.60;;;1.40;;
11548;SDS011;61444;59.472;18.306;2024-03-06T08:47:54;4.57;;;1.77;;
11548;SDS011;61444;59.472;18.306;2024-03-06T08:50:02;3.87;;;1.80;;
11548;SDS011;61444;59.472;18.306;2024-03-06T08:52:11;2.50;;;1.57;;
11548;SDS011;61444;59.472;18.306;2024-03-06T08:54:19;3.90;;;1.80;;
11548;SDS011;61444;59.472;18.306;2024-03-06T08:56:28;5.27;;;1.50;;
11548;SDS011;61444;59.472;18.306;2024-03-06T08:58:37;4.27;;;1.53;;
11548;SDS011;61444;59.472;18.306;2024-03-06T09:00:47;2.70;;;1.13;;
11548;SDS011;61444;59.472;18.306;2024-03-06T09:02:55;5.43;;;1.80;;
11548;SDS011;61444;59.472;18.306;2024-03-06T09:05:04;4.07;;;1.83;;
11548;SDS011;61444;59.472;18.306;2024-03-06T09:07:14;6.50;;;1.57;;
11548;SDS011;61444;59.472;18.306;2024-03-06T09:09:22;4.13;;;1.53;;
11548;SDS011;61444;59.472;18.306;2024-03-06T09:11:31;3.00;;;1.50;;
11548;SDS011;61444;59.472;18.306;2024-03-06T09:13:40;4.77;;;2.10;;
11548;SDS011;61444;59.472;18.306;2024-03-06T09:15:49;6.13;;;1.57;;
11548;SDS011;61444;59.472;18.306;2024-03-06T09:17:58;5.27;;;1.90;;
11548;SDS011;61444;59.472;18.306;2024-03-06T09:20:07;1.80;;;1.27;;
11548;SDS011;61444;59.472;18.306;2024-03-06T09:22:20;4.17;;;1.70;;
11548;SDS011;61444;59.472;18.306;2024-03-06T09:24:29;3.00;;;1.57;;
11548;SDS011;61444;59.472;18.306;2024-03-06T09:26:37;3.23;;;1.43;;
11548;SDS011;61444;59.472;18.306;2024-03-06T09:28:45;5.63;;;1.70;;
11548;SDS011;61444;59.472;18.306;2024-03-06T09:30:56;8.60;;;1.30;;
11548;SDS011;61444;59.472;18.306;2024-03-06T09:33:04;4.43;;;1.50;;
11548;SDS011;61444;59.472;18.306;2024-03-06T09:35:13;4.80;;;1.50;;
11548;SDS011;61444;59.472;18.306;2024-03-06T09:37:24;4.57;;;1.50;;
11548;SDS011;61444;59.472;18.306;2024-03-06T09:39:32;4.47;;;1.40;;
11548;SDS011;61444;59.472;18.306;2024-03-06T09:41:41;3.93;;;1.83;;
11548;SDS011;61444;59.472;18.306;2024-03-06T09:43:48;3.67;;;1.63;;
11548;SDS011;61444;59.472;18.306;2024-03-06T09:45:58;3.60;;;2.00;;
11548;SDS011;61444;59.472;18.306;2024-03-06T09:48:09;3.07;;;1.33;;
11548;SDS011;61444;59.472;18.306;2024-03-06T09:50:17;2.07;;;1.20;;
11548;SDS011;61444;59.472;18.306;2024-03-06T09:52:30;1.90;;;1.00;;
11548;SDS011;61444;59.472;18.306;2024-03-06T09:54:39;3.23;;;1.30;;
11548;SDS011;61444;59.472;18.306;2024-03-06T09:56:49;4.70;;;1.43;;
11548;SDS011;61444;59.472;18.306;2024-03-06T09:58:59;1.70;;;1.13;;
11548;SDS011;61444;59.472;18.306;2024-03-06T10:01:09;4.07;;;1.30;;
11548;SDS011;61444;59.472;18.306;2024-03-06T10:03:18;3.53;;;1.53;;
11548;SDS011;61444;59.472;18.306;2024-03-06T10:05:27;3.67;;;0.90;;
11548;SDS011;61444;59.472;18.306;2024-03-06T10:07:37;2.27;;;1.10;;
11548;SDS011;61444;59.472;18.306;2024-03-06T10:09:47;2.37;;;1.20;;
11548;SDS011;61444;59.472;18.306;2024-03-06T10:11:56;2.97;;;1.43;;
11548;SDS011;61444;59.472;18.306;2024-03-06T10:14:09;3.60;;;1.37;;
11548;SDS011;61444;59.472;18.306;2024-03-06T10:16:20;3.43;;;1.50;;
11548;SDS011;61444;59.472;18.306;2024-03-06T10:18:28;2.10;;;1.13;;
11548;SDS011;61444;59.472;18.306;2024-03-06T10:20:39;4.23;;;1.33;;
11548;SDS011;61444;59.472;18.306;2024-03-06T10:22:50;2.70;;;1.40;;
11548;SDS011;61444;59.472;18.306;2024-03-06T10:25:04;2.43;;;1.17;;
11548;SDS011;61444;59.472;18.306;2024-03-06T10:27:16;3.17;;;1.40;;
11548;SDS011;61444;59.472;18.306;2024-03-06T10:29:25;3.63;;;1.20;;
11548;SDS011;61444;59.472;18.306;2024-03-06T10:31:36;3.60;;;1.53;;
11548;SDS011;61444;59.472;18.306;2024-03-06T10:33:44;6.10;;;1.90;;
11548;SDS011;61444;59.472;18.306;2024-03-06T10:35:54;2.70;;;1.90;;
11548;SDS011;61444;59.472;18.306;2024-03-06T10:38:07;2.40;;;1.77;;
11548;SDS011;61444;59.472;18.306;2024-03-06T10:40:17;4.90;;;1.60;;
11548;SDS011;61444;59.472;18.306;2024-03-06T10:42:28;2.37;;;1.40;;
11548;SDS011;61444;59.472;18.306;2024-03-06T10:44:37;4.33;;;1.30;;
11548;SDS011;61444;59.472;18.306;2024-03-06T10:46:56;1.53;;;1.10;;
11548;SDS011;61444;59.472;18.306;2024-03-06T10:49:06;4.43;;;1.53;;
11548;SDS011;61444;59.472;18.306;2024-03-06T10:51:17;6.47;;;1.30;;
11548;SDS011;61444;59.472;18.306;2024-03-06T10:53:27;3.67;;;1.20;;
11548;SDS011;61444;59.472;18.306;2024-03-06T10:55:36;1.73;;;1.00;;
11548;SDS011;61444;59.472;18.306;2024-03-06T10:57:45;3.27;;;1.10;;
11548;SDS011;61444;59.472;18.306;2024-03-06T10:59:54;3.00;;;1.10;;
11548;SDS011;61444;59.472;18.306;2024-03-06T11:02:12;2.70;;;1.07;;
11548;SDS011;61444;59.472;18.306;2024-03-06T11:04:21;4.27;;;1.27;;
11548;SDS011;61444;59.472;18.306;2024-03-06T11:06:30;4.07;;;1.33;;
11548;SDS011;61444;59.472;18.306;2024-03-06T11:08:42;2.60;;;1.20;;
11548;SDS011;61444;59.472;18.306;2024-03-06T11:10:50;4.03;;;1.40;;
11548;SDS011;61444;59.472;18.306;2024-03-06T11:13:00;4.17;;;1.30;;
11548;SDS011;61444;59.472;18.306;2024-03-06T11:15:13;2.97;;;1.13;;
11548;SDS011;61444;59.472;18.306;2024-03-06T11:17:26;2.00;;;1.50;;
11548;SDS011;61444;59.472;18.306;2024-03-06T11:21:57;2.40;;;1.07;;
11548;SDS011;61444;59.472;18.306;2024-03-06T11:24:14;3.13;;;1.30;;
11548;SDS011;61444;59.472;18.306;2024-03-06T11:26:27;2.50;;;0.90;;
11548;SDS011;61444;59.472;18.306;2024-03-06T11:28:36;1.70;;;1.00;;
11548;SDS011;61444;59.472;18.306;2024-03-06T11:30:47;5.97;;;1.33;;
11548;SDS011;61444;59.472;18.306;2024-03-06T11:32:59;3.43;;;1.47;;
11548;SDS011;61444;59.472;18.306;2024-03-06T11:35:08;3.57;;;1.23;;
11548;SDS011;61444;59.472;18.306;2024-03-06T11:37:20;4.40;;;1.30;;
11548;SDS011;61444;59.472;18.306;2024-03-06T11:39:32;3.23;;;1.30;;
11548;SDS011;61444;59.472;18.306;2024-03-06T11:41:46;2.73;;;1.30;;
11548;SDS011;61444;59.472;18.306;2024-03-06T11:43:56;3.10;;;1.37;;
11548;SDS011;61444;59.472;18.306;2024-03-06T11:46:08;2.40;;;1.50;;
11548;SDS011;61444;59.472;18.306;2024-03-06T11:48:17;3.53;;;1.40;;
11548;SDS011;61444;59.472;18.306;2024-03-06T11:50:28;2.77;;;1.50;;
11548;SDS011;61444;59.472;18.306;2024-03-06T11:52:38;2.13;;;1.20;;
11548;SDS011;61444;59.472;18.306;2024-03-06T11:54:47;2.83;;;1.30;;
11548;SDS011;61444;59.472;18.306;2024-03-06T11:56:56;2.20;;;1.23;;
11548;SDS011;61444;59.472;18.306;2024-03-06T11:59:05;2.50;;;1.20;;
11548;SDS011;61444;59.472;18.306;2024-03-06T12:01:13;4.17;;;1.40;;
11548;SDS011;61444;59.472;18.306;2024-03-06T12:03:23;3.03;;;1.10;;
11548;SDS011;61444;59.472;18.306;2024-03-06T12:05:31;5.43;;;1.40;;
11548;SDS011;61444;59.472;18.306;2024-03-06T12:07:50;3.83;;;1.43;;
11548;SDS011;61444;59.472;18.306;2024-03-06T12:10:00;4.63;;;1.13;;
11548;SDS011;61444;59.472;18.306;2024-03-06T12:12:09;2.77;;;1.37;;
11548;SDS011;61444;59.472;18.306;2024-03-06T12:14:19;3.63;;;1.50;;
11548;SDS011;61444;59.472;18.306;2024-03-06T12:16:30;3.50;;;1.47;;
11548;SDS011;61444;59.472;18.306;2024-03-06T12:18:42;2.10;;;1.30;;
11548;SDS011;61444;59.472;18.306;2024-03-06T12:20:51;3.80;;;1.60;;
11548;SDS011;61444;59.472;18.306;2024-03-06T12:22:59;3.13;;;1.20;;
11548;SDS011;61444;59.472;18.306;2024-03-06T12:25:08;3.23;;;1.40;;
11548;SDS011;61444;59.472;18.306;2024-03-06T12:27:22;4.33;;;1.33;;
11548;SDS011;61444;59.472;18.306;2024-03-06T12:29:31;3.17;;;1.43;;
11548;SDS011;61444;59.472;18.306;2024-03-06T12:31:41;1.93;;;1.07;;
11548;SDS011;61444;59.472;18.306;2024-03-06T12:33:57;3.10;;;1.20;;
11548;SDS011;61444;59.472;18.306;2024-03-06T12:36:10;1.87;;;1.30;;
11548;SDS011;61444;59.472;18.306;2024-03-06T12:38:19;2.77;;;1.20;;
11548;SDS011;61444;59.472;18.306;2024-03-06T12:40:27;3.37;;;1.30;;
11548;SDS011;61444;59.472;18.306;2024-03-06T12:42:36;4.70;;;1.30;;
11548;SDS011;61444;59.472;18.306;2024-03-06T12:44:45;3.63;;;1.43;;
11548;SDS011;61444;59.472;18.306;2024-03-06T12:46:55;6.10;;;1.73;;
11548;SDS011;61444;59.472;18.306;2024-03-06T12:49:04;6.63;;;1.53;;
11548;SDS011;61444;59.472;18.306;2024-03-06T12:51:13;4.67;;;1.60;;
11548;SDS011;61444;59.472;18.306;2024-03-06T12:53:21;2.93;;;1.30;;
11548;SDS011;61444;59.472;18.306;2024-03-06T12:55:30;4.33;;;1.70;;
11548;SDS011;61444;59.472;18.306;2024-03-06T12:57:39;3.33;;;1.50;;